Time;durP1;ratioP1;P1;durP2;ratioP2;P2;SDS_P1;SDS_P2;PMS_P1;PMS_P2;Temp;Humidity;BMP_temperature;BMP_pressure;BME280_temperature;BME280_humidity;BME280_pressure;Samples;Min_cycle;Max_cycle;Signal;HPM_P1;HPM_P2
2024/02/26 00:01:44;;;;;;;4.50;3.58;;;;;;;;;;5073528;28;20105;-72
2024/02/26 00:04:11;;;;;;;5.30;3.67;;;;;;;;;;5067907;28;20060;-70
2024/02/26 00:06:41;;;;;;;6.75;3.85;;;;;;;;;;5081035;28;20054;-70
2024/02/26 00:09:08;;;;;;;4.68;3.30;;;;;;;;;;5074174;28;20498;-71
2024/02/26 00:11:38;;;;;;;5.63;3.40;;;;;;;;;;5074186;28;20048;-70
2024/02/26 00:14:04;;;;;;;5.00;3.42;;;;;;;;;;5077296;28;20682;-70
2024/02/26 00:16:31;;;;;;;8.52;3.45;;;;;;;;;;5073032;28;20056;-71
2024/02/26 00:18:57;;;;;;;5.18;3.40;;;;;;;;;;5061952;28;20135;-69
2024/02/26 00:21:24;;;;;;;5.60;3.85;;;;;;;;;;5076686;28;20167;-69
2024/02/26 00:23:51;;;;;;;4.80;3.50;;;;;;;;;;5062479;28;20081;-69
2024/02/26 00:26:17;;;;;;;5.00;3.20;;;;;;;;;;5069955;28;20060;-70
2024/02/26 00:28:44;;;;;;;5.72;3.83;;;;;;;;;;5066099;28;20135;-70
2024/02/26 00:31:10;;;;;;;6.53;4.10;;;;;;;;;;5089566;28;20048;-69
2024/02/26 00:33:36;;;;;;;5.85;3.60;;;;;;;;;;5088314;28;20055;-69
2024/02/26 00:36:04;;;;;;;4.32;3.55;;;;;;;;;;5060545;28;20220;-70
2024/02/26 00:38:30;;;;;;;6.35;3.70;;;;;;;;;;5092368;28;20070;-72
2024/02/26 00:40:56;;;;;;;5.07;4.15;;;;;;;;;;5064903;28;20075;-69
2024/02/26 00:43:23;;;;;;;5.57;3.65;;;;;;;;;;5082283;28;20056;-70
2024/02/26 00:45:49;;;;;;;5.65;3.80;;;;;;;;;;5071899;28;20488;-69
2024/02/26 00:48:16;;;;;;;5.85;4.00;;;;;;;;;;5059030;28;20458;-71
2024/02/26 00:50:42;;;;;;;5.00;3.63;;;;;;;;;;5066268;28;20048;-68
2024/02/26 00:53:09;;;;;;;4.10;3.15;;;;;;;;;;5078593;28;20062;-69
2024/02/26 00:55:35;;;;;;;7.68;3.83;;;;;;;;;;5073146;28;20918;-69
2024/02/26 00:58:02;;;;;;;7.90;4.30;;;;;;;;;;5082515;28;20071;-69
2024/02/26 01:00:28;;;;;;;5.70;3.55;;;;;;;;;;5056544;28;20557;-69
2024/02/26 01:02:55;;;;;;;6.45;3.90;;;;;;;;;;5071450;28;20048;-69
2024/02/26 01:05:21;;;;;;;5.20;3.90;;;;;;;;;;5062656;28;20055;-69
2024/02/26 01:07:47;;;;;;;5.45;3.95;;;;;;;;;;5056566;28;20480;-70
2024/02/26 01:10:14;;;;;;;6.00;4.07;;;;;;;;;;5067572;28;20048;-74
2024/02/26 01:12:40;;;;;;;5.45;3.78;;;;;;;;;;5075610;28;20217;-73
2024/02/26 01:15:08;;;;;;;6.47;3.67;;;;;;;;;;5068015;28;20047;-74
2024/02/26 01:17:35;;;;;;;5.75;3.78;;;;;;;;;;5083966;28;20917;-74
2024/02/26 01:20:02;;;;;;;6.47;3.40;;;;;;;;;;5076362;28;20071;-74
2024/02/26 01:22:28;;;;;;;3.97;2.92;;;;;;;;;;5062703;28;20380;-74
2024/02/26 01:24:56;;;;;;;4.47;3.15;;;;;;;;;;5077161;28;20048;-74
2024/02/26 01:27:26;;;;;;;4.90;3.28;;;;;;;;;;5066521;28;20051;-74
2024/02/26 01:29:52;;;;;;;5.43;3.13;;;;;;;;;;5066529;28;20044;-74
2024/02/26 01:32:19;;;;;;;5.05;3.28;;;;;;;;;;5072094;28;20817;-74
2024/02/26 01:34:46;;;;;;;5.05;3.05;;;;;;;;;;5070782;28;20133;-74
2024/02/26 01:37:12;;;;;;;7.78;3.33;;;;;;;;;;5085310;28;20055;-74
2024/02/26 01:39:41;;;;;;;6.88;3.22;;;;;;;;;;5071739;28;20057;-74
2024/02/26 01:42:07;;;;;;;6.68;3.67;;;;;;;;;;5055086;28;20053;-74
2024/02/26 01:44:34;;;;;;;4.78;3.30;;;;;;;;;;5077599;28;20063;-73
2024/02/26 01:47:01;;;;;;;3.63;2.80;;;;;;;;;;5074805;28;20109;-73
2024/02/26 01:49:28;;;;;;;4.53;2.90;;;;;;;;;;5058747;28;20735;-74
2024/02/26 01:51:55;;;;;;;4.63;3.00;;;;;;;;;;5052955;28;20185;-73
2024/02/26 01:54:21;;;;;;;6.72;3.20;;;;;;;;;;5072261;28;20411;-73
2024/02/26 01:56:48;;;;;;;5.00;3.53;;;;;;;;;;5064049;28;20071;-73
2024/02/26 01:59:15;;;;;;;5.68;3.65;;;;;;;;;;5076786;28;20135;-73
2024/02/26 02:01:44;;;;;;;4.85;3.58;;;;;;;;;;5075415;28;20113;-73
2024/02/26 02:04:10;;;;;;;7.03;3.67;;;;;;;;;;5058949;28;20506;-73
2024/02/26 02:06:37;;;;;;;5.95;3.55;;;;;;;;;;5049263;28;20056;-73
2024/02/26 02:09:06;;;;;;;4.95;3.65;;;;;;;;;;5076050;28;20060;-77
2024/02/26 02:11:33;;;;;;;10.68;4.13;;;;;;;;;;5072602;28;20532;-73
2024/02/26 02:14:00;;;;;;;4.32;3.22;;;;;;;;;;5051250;28;20756;-74
2024/02/26 02:16:26;;;;;;;5.88;3.95;;;;;;;;;;5075347;28;20052;-73
2024/02/26 02:18:53;;;;;;;5.22;3.80;;;;;;;;;;5056203;28;20052;-73
2024/02/26 02:21:19;;;;;;;6.25;4.20;;;;;;;;;;5069260;28;20514;-69
2024/02/26 02:23:46;;;;;;;6.00;4.40;;;;;;;;;;5077134;28;20799;-69
2024/02/26 02:26:13;;;;;;;7.90;4.47;;;;;;;;;;5050658;28;20172;-72
2024/02/26 02:28:40;;;;;;;6.15;3.78;;;;;;;;;;5065945;28;20045;-70
2024/02/26 02:31:07;;;;;;;7.03;4.68;;;;;;;;;;5056657;28;20049;-71
2024/02/26 02:33:34;;;;;;;5.35;3.75;;;;;;;;;;5063467;28;20694;-69
2024/02/26 02:36:01;;;;;;;8.52;4.30;;;;;;;;;;5075216;28;20189;-69
2024/02/26 02:38:29;;;;;;;8.18;4.85;;;;;;;;;;5075628;28;20056;-69
2024/02/26 02:40:56;;;;;;;6.43;4.28;;;;;;;;;;5076616;28;20048;-72
2024/02/26 02:43:22;;;;;;;5.10;3.92;;;;;;;;;;5068221;28;20102;-69
2024/02/26 02:45:48;;;;;;;7.43;4.72;;;;;;;;;;5073588;28;20500;-70
2024/02/26 02:48:15;;;;;;;8.13;3.92;;;;;;;;;;5050247;28;20064;-70
2024/02/26 02:50:41;;;;;;;5.57;3.47;;;;;;;;;;5075866;28;20052;-69
2024/02/26 02:53:08;;;;;;;5.85;4.20;;;;;;;;;;5063109;28;20549;-70
2024/02/26 02:55:34;;;;;;;7.28;4.07;;;;;;;;;;5066357;28;20055;-68
2024/02/26 02:58:01;;;;;;;6.95;4.40;;;;;;;;;;5077179;28;20058;-69
2024/02/26 03:00:27;;;;;;;5.35;3.92;;;;;;;;;;5080961;28;20090;-69
2024/02/26 03:02:54;;;;;;;7.20;4.65;;;;;;;;;;5070464;28;20048;-70
2024/02/26 03:05:20;;;;;;;6.90;3.92;;;;;;;;;;5080556;28;20052;-69
2024/02/26 03:07:47;;;;;;;6.43;3.80;;;;;;;;;;5051959;28;20052;-69
2024/02/26 03:10:13;;;;;;;5.68;3.40;;;;;;;;;;5068016;28;20054;-69
2024/02/26 03:12:40;;;;;;;6.05;4.05;;;;;;;;;;5087030;28;20140;-69
2024/02/26 03:15:06;;;;;;;5.50;3.85;;;;;;;;;;5067342;28;20048;-69
2024/02/26 03:17:33;;;;;;;6.78;4.22;;;;;;;;;;5084559;28;20040;-68
2024/02/26 03:19:59;;;;;;;5.28;3.80;;;;;;;;;;5066694;28;20531;-68
2024/02/26 03:22:26;;;;;;;5.60;3.60;;;;;;;;;;5062515;28;20370;-69
2024/02/26 03:24:52;;;;;;;5.28;4.10;;;;;;;;;;5071349;28;20044;-71
2024/02/26 03:27:19;;;;;;;6.63;4.03;;;;;;;;;;5073676;28;20412;-69
2024/02/26 03:29:45;;;;;;;5.95;4.00;;;;;;;;;;5071524;28;20114;-69
2024/02/26 03:32:12;;;;;;;6.18;3.88;;;;;;;;;;5066466;28;20053;-70
2024/02/26 03:34:40;;;;;;;5.60;4.00;;;;;;;;;;5074764;28;20139;-68
2024/02/26 03:37:09;;;;;;;5.15;3.72;;;;;;;;;;5058755;28;20052;-68
2024/02/26 03:39:35;;;;;;;5.45;4.18;;;;;;;;;;5067743;28;20044;-68
2024/02/26 03:42:02;;;;;;;6.45;4.35;;;;;;;;;;5068252;28;20097;-68
2024/02/26 03:44:28;;;;;;;6.07;3.50;;;;;;;;;;5060333;28;20044;-68
2024/02/26 03:46:55;;;;;;;5.40;3.58;;;;;;;;;;5101804;27;20044;-69
2024/02/26 03:49:22;;;;;;;5.20;3.75;;;;;;;;;;5077108;28;20052;-70
2024/02/26 03:51:48;;;;;;;6.40;3.97;;;;;;;;;;5077114;28;20044;-70
2024/02/26 03:54:15;;;;;;;5.97;3.55;;;;;;;;;;5077027;28;20044;-70
2024/02/26 03:56:41;;;;;;;4.40;3.50;;;;;;;;;;5080140;28;20082;-70
2024/02/26 03:59:07;;;;;;;4.82;3.47;;;;;;;;;;5080617;28;20131;-70
2024/02/26 04:01:34;;;;;;;9.00;3.90;;;;;;;;;;5082869;28;20472;-69
2024/02/26 04:04:00;;;;;;;6.18;3.70;;;;;;;;;;5089295;28;20097;-70
2024/02/26 04:06:27;;;;;;;6.00;3.58;;;;;;;;;;5063451;28;20094;-70
2024/02/26 04:08:53;;;;;;;4.65;3.15;;;;;;;;;;5083685;28;20052;-70
2024/02/26 04:11:20;;;;;;;3.80;2.92;;;;;;;;;;5073683;28;20045;-69
2024/02/26 04:13:49;;;;;;;4.88;3.33;;;;;;;;;;5065745;28;20462;-72
2024/02/26 04:16:16;;;;;;;4.38;3.00;;;;;;;;;;5068919;28;20411;-70
2024/02/26 04:18:42;;;;;;;4.55;3.33;;;;;;;;;;5078590;28;20052;-69
2024/02/26 04:21:09;;;;;;;6.28;3.25;;;;;;;;;;5082662;28;20052;-72
2024/02/26 04:23:35;;;;;;;5.13;3.70;;;;;;;;;;5062541;28;20115;-70
2024/02/26 04:26:02;;;;;;;5.65;3.63;;;;;;;;;;5069885;28;20049;-70
2024/02/26 04:28:29;;;;;;;4.63;3.50;;;;;;;;;;5079455;28;20059;-69
2024/02/26 04:30:55;;;;;;;6.70;4.15;;;;;;;;;;5084945;28;20055;-69
2024/02/26 04:33:22;;;;;;;4.50;3.25;;;;;;;;;;5074268;28;20106;-70
2024/02/26 04:35:48;;;;;;;5.22;3.80;;;;;;;;;;5069402;28;20797;-69
2024/02/26 04:38:15;;;;;;;5.20;3.90;;;;;;;;;;5081488;28;20051;-70
2024/02/26 04:40:41;;;;;;;4.88;3.47;;;;;;;;;;5068574;28;20054;-75
2024/02/26 04:43:08;;;;;;;5.43;3.42;;;;;;;;;;5063648;28;20040;-75
2024/02/26 04:45:34;;;;;;;6.93;3.35;;;;;;;;;;5080263;28;20534;-74
2024/02/26 04:48:00;;;;;;;4.97;3.60;;;;;;;;;;5068065;28;20097;-74
2024/02/26 04:50:27;;;;;;;5.35;3.25;;;;;;;;;;5078268;28;20044;-73
2024/02/26 04:52:53;;;;;;;6.30;3.78;;;;;;;;;;5081279;28;20048;-73
2024/02/26 04:55:20;;;;;;;5.93;3.70;;;;;;;;;;5068717;28;20052;-74
2024/02/26 04:57:46;;;;;;;5.80;4.10;;;;;;;;;;5087960;28;20385;-75
2024/02/26 05:00:13;;;;;;;5.55;3.45;;;;;;;;;;5068093;28;20044;-74
2024/02/26 05:02:39;;;;;;;5.00;3.72;;;;;;;;;;5068995;28;20049;-74
2024/02/26 05:05:06;;;;;;;5.90;4.43;;;;;;;;;;5070094;28;20090;-74
2024/02/26 05:07:32;;;;;;;4.38;3.45;;;;;;;;;;5070277;28;20048;-75
2024/02/26 05:09:59;;;;;;;6.68;4.35;;;;;;;;;;5086931;28;20159;-75
2024/02/26 05:12:25;;;;;;;5.13;3.72;;;;;;;;;;5079035;28;20044;-74
2024/02/26 05:14:52;;;;;;;6.20;3.75;;;;;;;;;;5077455;28;20790;-73
2024/02/26 05:17:18;;;;;;;6.60;3.45;;;;;;;;;;5080932;28;20059;-74
2024/02/26 05:19:44;;;;;;;8.32;3.85;;;;;;;;;;5072574;28;20097;-74
2024/02/26 05:22:11;;;;;;;5.95;3.63;;;;;;;;;;5067348;28;20084;-74
2024/02/26 05:24:38;;;;;;;9.13;3.65;;;;;;;;;;5061143;28;20056;-73
2024/02/26 05:27:04;;;;;;;5.50;3.90;;;;;;;;;;5071991;28;20056;-74
2024/02/26 05:29:31;;;;;;;4.93;3.40;;;;;;;;;;5062979;28;20134;-75
2024/02/26 05:31:57;;;;;;;5.32;3.65;;;;;;;;;;5079664;28;20051;-75
2024/02/26 05:34:23;;;;;;;5.38;3.25;;;;;;;;;;5070051;28;20056;-74
2024/02/26 05:36:50;;;;;;;6.68;3.63;;;;;;;;;;5083110;28;20181;-73
2024/02/26 05:39:17;;;;;;;6.00;3.45;;;;;;;;;;5077468;28;20048;-74
2024/02/26 05:41:46;;;;;;;5.28;3.28;;;;;;;;;;5076768;28;20415;-74
2024/02/26 05:44:13;;;;;;;4.15;3.05;;;;;;;;;;5079094;28;20044;-73
2024/02/26 05:46:39;;;;;;;6.07;3.88;;;;;;;;;;5060634;28;20080;-73
2024/02/26 05:49:07;;;;;;;6.30;4.13;;;;;;;;;;5061375;28;20128;-74
2024/02/26 05:51:33;;;;;;;5.68;4.03;;;;;;;;;;5076563;28;20055;-74
2024/02/26 05:54:00;;;;;;;5.53;3.55;;;;;;;;;;5085066;28;20118;-73
2024/02/26 05:56:27;;;;;;;5.63;3.45;;;;;;;;;;5085531;28;20101;-73
2024/02/26 05:58:54;;;;;;;7.10;4.18;;;;;;;;;;5067120;28;20101;-74
2024/02/26 06:01:20;;;;;;;5.22;3.70;;;;;;;;;;5081737;28;20043;-75
2024/02/26 06:03:47;;;;;;;4.85;3.22;;;;;;;;;;5080182;28;20143;-73
2024/02/26 06:06:15;;;;;;;5.40;3.65;;;;;;;;;;5080993;28;20101;-74
2024/02/26 06:08:42;;;;;;;6.22;4.00;;;;;;;;;;5058797;28;20070;-73
2024/02/26 06:11:08;;;;;;;6.30;3.92;;;;;;;;;;5076495;28;20056;-70
2024/02/26 06:13:35;;;;;;;5.35;3.78;;;;;;;;;;5069312;28;20055;-69
2024/02/26 06:16:02;;;;;;;11.23;4.22;;;;;;;;;;5042784;28;20759;-70
2024/02/26 06:18:28;;;;;;;4.72;3.70;;;;;;;;;;5075860;28;20040;-69
2024/02/26 06:20:55;;;;;;;5.43;3.80;;;;;;;;;;5072340;28;20047;-70
2024/02/26 06:23:21;;;;;;;6.30;3.90;;;;;;;;;;5074427;28;20044;-70
2024/02/26 06:25:48;;;;;;;6.95;4.53;;;;;;;;;;5068482;28;20118;-70
2024/02/26 06:28:14;;;;;;;5.25;3.85;;;;;;;;;;5074620;28;20135;-71
2024/02/26 06:30:41;;;;;;;6.13;4.07;;;;;;;;;;5076390;28;20075;-70
2024/02/26 06:33:07;;;;;;;6.25;4.30;;;;;;;;;;5054776;28;20071;-70
2024/02/26 06:35:34;;;;;;;6.63;4.40;;;;;;;;;;5084533;28;20650;-70
2024/02/26 06:38:00;;;;;;;5.80;3.97;;;;;;;;;;5087116;28;20051;-69
2024/02/26 06:40:27;;;;;;;5.10;3.38;;;;;;;;;;5045362;28;20481;-70
2024/02/26 06:42:53;;;;;;;7.38;4.00;;;;;;;;;;5064949;28;20048;-70
2024/02/26 06:45:20;;;;;;;7.28;3.67;;;;;;;;;;5053886;28;20052;-69
2024/02/26 06:47:46;;;;;;;8.40;4.30;;;;;;;;;;5073069;28;20048;-70
2024/02/26 06:50:13;;;;;;;6.63;4.03;;;;;;;;;;5071890;28;20074;-70
2024/02/26 06:52:40;;;;;;;5.90;4.00;;;;;;;;;;5072263;28;20048;-71
2024/02/26 06:55:08;;;;;;;5.22;3.90;;;;;;;;;;5077661;28;20052;-71
2024/02/26 06:57:35;;;;;;;7.68;4.22;;;;;;;;;;5050125;28;20106;-69
2024/02/26 07:00:03;;;;;;;7.32;4.65;;;;;;;;;;5067045;28;20394;-71
2024/02/26 07:02:30;;;;;;;6.55;5.00;;;;;;;;;;5074736;28;20549;-72
2024/02/26 07:04:58;;;;;;;6.57;4.82;;;;;;;;;;5088086;28;20055;-70
2024/02/26 07:07:24;;;;;;;6.47;4.68;;;;;;;;;;5087821;28;20128;-70
2024/02/26 07:09:51;;;;;;;7.20;4.78;;;;;;;;;;5065422;28;20091;-70
2024/02/26 07:12:19;;;;;;;6.10;4.50;;;;;;;;;;5083763;28;20502;-71
2024/02/26 07:14:45;;;;;;;7.28;4.88;;;;;;;;;;5062178;28;20060;-70
2024/02/26 07:17:12;;;;;;;9.50;5.20;;;;;;;;;;5068814;28;20056;-70
2024/02/26 07:19:39;;;;;;;7.80;5.57;;;;;;;;;;5072507;28;20040;-75
2024/02/26 07:22:05;;;;;;;8.95;5.28;;;;;;;;;;5070515;28;20774;-75
2024/02/26 07:24:32;;;;;;;7.15;4.75;;;;;;;;;;5074224;28;20040;-75
2024/02/26 07:26:58;;;;;;;7.18;4.80;;;;;;;;;;5059953;28;20121;-76
2024/02/26 07:29:24;;;;;;;7.43;5.50;;;;;;;;;;5053429;28;20052;-75
2024/02/26 07:31:51;;;;;;;7.07;5.05;;;;;;;;;;5074901;28;20083;-77
2024/02/26 07:34:17;;;;;;;8.07;4.90;;;;;;;;;;5076710;28;20101;-75
2024/02/26 07:36:44;;;;;;;8.93;5.63;;;;;;;;;;5078945;28;20706;-77
2024/02/26 07:39:10;;;;;;;7.53;5.35;;;;;;;;;;5057480;28;20048;-75
2024/02/26 07:41:38;;;;;;;8.05;5.45;;;;;;;;;;5079192;28;20040;-75
2024/02/26 07:44:05;;;;;;;6.70;4.97;;;;;;;;;;5062202;28;20044;-76
2024/02/26 07:46:31;;;;;;;7.10;5.10;;;;;;;;;;5076494;28;20384;-77
2024/02/26 07:48:58;;;;;;;7.85;5.60;;;;;;;;;;5081008;28;20058;-76
2024/02/26 07:51:24;;;;;;;11.45;6.28;;;;;;;;;;5072332;28;20102;-77
2024/02/26 07:53:52;;;;;;;9.10;6.25;;;;;;;;;;5072673;28;20072;-76
2024/02/26 07:56:19;;;;;;;9.43;5.72;;;;;;;;;;5068176;28;20408;-77
2024/02/26 07:58:45;;;;;;;10.88;5.90;;;;;;;;;;5072017;28;20108;-76
2024/02/26 08:01:15;;;;;;;9.35;6.63;;;;;;;;;;5065061;28;20045;-77
2024/02/26 08:03:41;;;;;;;9.88;6.88;;;;;;;;;;5090054;28;20503;-76
2024/02/26 08:06:08;;;;;;;11.48;7.25;;;;;;;;;;5082649;28;20054;-77
2024/02/26 08:08:34;;;;;;;9.15;6.82;;;;;;;;;;5078856;28;20501;-76
2024/02/26 08:11:01;;;;;;;9.70;6.75;;;;;;;;;;5068064;28;20508;-77
2024/02/26 08:13:27;;;;;;;10.38;7.30;;;;;;;;;;5075781;28;20067;-76
2024/02/26 08:15:54;;;;;;;11.77;7.78;;;;;;;;;;5071367;28;20124;-76
2024/02/26 08:18:20;;;;;;;11.75;7.80;;;;;;;;;;5074851;28;20449;-77
2024/02/26 08:20:48;;;;;;;10.95;7.65;;;;;;;;;;5066324;28;20132;-77
2024/02/26 08:23:15;;;;;;;10.25;6.60;;;;;;;;;;5069315;28;20049;-78
2024/02/26 08:25:41;;;;;;;13.02;8.32;;;;;;;;;;5063749;28;20079;-77
2024/02/26 08:28:08;;;;;;;12.48;7.28;;;;;;;;;;5072969;28;20050;-76
2024/02/26 08:30:34;;;;;;;12.02;7.72;;;;;;;;;;5069285;28;20036;-77
2024/02/26 08:33:01;;;;;;;12.55;7.80;;;;;;;;;;5082698;28;20458;-77
2024/02/26 08:35:27;;;;;;;12.05;7.80;;;;;;;;;;5079761;28;20749;-76
2024/02/26 08:37:54;;;;;;;12.30;8.50;;;;;;;;;;5068502;28;20047;-77
2024/02/26 08:40:20;;;;;;;12.43;7.95;;;;;;;;;;5071031;28;20433;-78
2024/02/26 08:42:46;;;;;;;12.70;7.78;;;;;;;;;;5080618;28;20083;-78
2024/02/26 08:45:13;;;;;;;11.88;8.70;;;;;;;;;;5079640;28;20071;-78
2024/02/26 08:47:39;;;;;;;13.38;8.32;;;;;;;;;;5071131;28;20489;-78
2024/02/26 08:50:06;;;;;;;14.00;8.00;;;;;;;;;;5066844;28;20052;-80
2024/02/26 08:52:33;;;;;;;12.52;7.63;;;;;;;;;;5087594;28;20054;-78
2024/02/26 08:54:59;;;;;;;12.90;8.15;;;;;;;;;;5070335;28;20048;-77
2024/02/26 08:57:27;;;;;;;12.68;8.00;;;;;;;;;;5077118;28;20127;-77
2024/02/26 08:59:54;;;;;;;16.00;8.40;;;;;;;;;;5075752;28;20500;-78
2024/02/26 09:02:20;;;;;;;11.57;7.72;;;;;;;;;;5065403;28;20040;-78
2024/02/26 09:04:46;;;;;;;13.25;7.85;;;;;;;;;;5079892;28;20083;-75
2024/02/26 09:07:13;;;;;;;15.38;8.82;;;;;;;;;;5083059;28;20508;-78
2024/02/26 09:09:40;;;;;;;11.80;7.55;;;;;;;;;;5089641;28;20040;-79
2024/02/26 09:12:06;;;;;;;12.50;7.45;;;;;;;;;;5069464;28;20059;-77
2024/02/26 09:14:33;;;;;;;12.25;7.45;;;;;;;;;;5070962;28;20056;-77
2024/02/26 09:16:59;;;;;;;14.60;8.27;;;;;;;;;;5067269;28;20048;-77
2024/02/26 09:19:27;;;;;;;13.10;7.80;;;;;;;;;;5080445;28;20081;-76
2024/02/26 09:21:57;;;;;;;13.95;8.70;;;;;;;;;;5085853;28;20510;-79
2024/02/26 09:24:24;;;;;;;13.30;8.48;;;;;;;;;;5069488;28;20047;-77
2024/02/26 09:26:51;;;;;;;16.90;9.70;;;;;;;;;;5082191;28;20050;-77
2024/02/26 09:29:17;;;;;;;15.27;9.05;;;;;;;;;;5080400;28;20044;-77
2024/02/26 09:31:47;;;;;;;16.17;9.55;;;;;;;;;;5067001;28;20057;-77
2024/02/26 09:34:13;;;;;;;16.02;9.13;;;;;;;;;;5079328;28;20048;-77
2024/02/26 09:36:40;;;;;;;14.05;8.63;;;;;;;;;;5076354;28;20059;-77
2024/02/26 09:39:11;;;;;;;15.88;8.63;;;;;;;;;;5084287;28;20163;-77
2024/02/26 09:41:38;;;;;;;16.90;9.27;;;;;;;;;;5061274;28;20044;-75
2024/02/26 09:44:05;;;;;;;15.35;8.93;;;;;;;;;;5080908;28;20047;-77
2024/02/26 09:46:32;;;;;;;14.90;8.52;;;;;;;;;;5069950;28;20060;-76
2024/02/26 09:48:58;;;;;;;18.30;9.95;;;;;;;;;;5081822;28;20125;-75
2024/02/26 09:51:25;;;;;;;15.05;8.88;;;;;;;;;;5086122;28;20517;-75
2024/02/26 09:53:52;;;;;;;16.23;10.07;;;;;;;;;;5074325;28;20134;-77
2024/02/26 09:56:19;;;;;;;15.00;9.07;;;;;;;;;;5074121;28;20062;-74
2024/02/26 09:58:48;;;;;;;18.20;9.35;;;;;;;;;;5067968;28;20129;-75
2024/02/26 10:01:18;;;;;;;15.05;9.10;;;;;;;;;;5080691;28;20127;-75
2024/02/26 10:03:46;;;;;;;14.63;8.35;;;;;;;;;;5083918;28;20048;-77
2024/02/26 10:06:13;;;;;;;14.07;8.87;;;;;;;;;;5068405;28;20086;-74
2024/02/26 10:08:40;;;;;;;14.43;8.15;;;;;;;;;;5082315;28;20051;-74
2024/02/26 10:11:07;;;;;;;14.45;8.55;;;;;;;;;;5077064;28;20044;-75
2024/02/26 10:13:34;;;;;;;15.30;8.57;;;;;;;;;;5067351;28;20469;-74
2024/02/26 10:16:03;;;;;;;14.75;8.60;;;;;;;;;;5063731;28;20182;-75
2024/02/26 10:18:48;;;;;;;13.63;8.45;;;;;;;;;;5055323;28;20042;-78
2024/02/26 10:21:18;;;;;;;14.88;8.63;;;;;;;;;;5076426;28;20056;-75
2024/02/26 10:23:45;;;;;;;15.20;8.05;;;;;;;;;;5067402;28;20048;-73
2024/02/26 10:26:13;;;;;;;15.68;9.18;;;;;;;;;;5074845;28;20052;-75
2024/02/26 10:28:40;;;;;;;15.85;9.13;;;;;;;;;;5069011;28;20067;-74
2024/02/26 10:31:07;;;;;;;14.98;8.90;;;;;;;;;;5075358;28;20047;-74
2024/02/26 10:33:36;;;;;;;13.88;8.15;;;;;;;;;;5083495;28;20366;-74
2024/02/26 10:36:05;;;;;;;12.63;8.15;;;;;;;;;;5072358;28;20078;-75
2024/02/26 10:38:32;;;;;;;14.63;8.35;;;;;;;;;;5081435;28;20121;-74
2024/02/26 10:40:58;;;;;;;13.60;8.13;;;;;;;;;;5073996;28;20789;-73
2024/02/26 10:43:25;;;;;;;13.80;8.57;;;;;;;;;;5079677;28;20486;-75
2024/02/26 10:45:51;;;;;;;13.55;8.55;;;;;;;;;;5089583;28;20128;-74
2024/02/26 10:48:18;;;;;;;14.23;8.13;;;;;;;;;;5081371;28;20040;-75
2024/02/26 10:50:45;;;;;;;13.82;8.60;;;;;;;;;;5086252;28;20044;-75
2024/02/26 10:53:21;;;;;;;14.95;8.30;;;;;;;;;;5076680;28;20047;-75
2024/02/26 10:55:49;;;;;;;14.55;7.72;;;;;;;;;;5069901;28;20131;-75
2024/02/26 10:58:16;;;;;;;12.30;7.85;;;;;;;;;;5071980;28;20060;-74
2024/02/26 11:00:42;;;;;;;12.73;8.30;;;;;;;;;;5085021;28;20080;-75
2024/02/26 11:03:10;;;;;;;13.68;8.25;;;;;;;;;;5085766;28;20055;-75
2024/02/26 11:05:38;;;;;;;13.25;8.48;;;;;;;;;;5068949;28;20755;-75
2024/02/26 11:08:05;;;;;;;13.75;8.40;;;;;;;;;;5081522;28;20044;-75
2024/02/26 11:10:32;;;;;;;14.57;8.43;;;;;;;;;;5095763;28;20060;-75
2024/02/26 11:12:59;;;;;;;13.43;8.40;;;;;;;;;;5096712;28;20125;-78
2024/02/26 11:15:26;;;;;;;14.02;8.90;;;;;;;;;;5063031;28;20055;-75
2024/02/26 11:17:53;;;;;;;13.00;8.65;;;;;;;;;;5073458;28;20460;-78
2024/02/26 11:20:19;;;;;;;14.57;8.57;;;;;;;;;;5085044;28;20664;-78
2024/02/26 11:22:46;;;;;;;15.00;9.00;;;;;;;;;;5068079;28;20048;-78
2024/02/26 11:25:13;;;;;;;14.43;8.75;;;;;;;;;;5060845;28;20052;-78
2024/02/26 11:27:47;;;;;;;15.88;9.55;;;;;;;;;;5069609;28;20135;-78
2024/02/26 11:30:15;;;;;;;18.52;10.13;;;;;;;;;;5087910;28;20135;-78
2024/02/26 11:32:46;;;;;;;16.35;9.23;;;;;;;;;;5072968;28;20090;-79
2024/02/26 11:35:15;;;;;;;14.40;8.63;;;;;;;;;;5085179;28;20084;-78
2024/02/26 11:37:50;;;;;;;15.65;9.82;;;;;;;;;;5086763;28;20514;-77
2024/02/26 11:40:17;;;;;;;15.38;8.68;;;;;;;;;;5079439;28;20144;-78
2024/02/26 11:42:44;;;;;;;17.33;8.82;;;;;;;;;;5070229;28;20113;-77
2024/02/26 11:45:31;;;;;;;14.80;8.45;;;;;;;;;;5083819;28;20083;-78
2024/02/26 11:48:00;;;;;;;13.93;8.85;;;;;;;;;;5082223;28;20067;-78
2024/02/26 11:50:38;;;;;;;14.07;9.13;;;;;;;;;;5073807;28;20043;-77
2024/02/26 11:53:20;;;;;;;16.73;9.30;;;;;;;;;;5082439;28;20462;-77
2024/02/26 11:55:48;;;;;;;14.73;8.48;;;;;;;;;;5069868;28;20048;-77
2024/02/26 11:58:14;;;;;;;12.45;8.20;;;;;;;;;;5082402;28;20556;-76
2024/02/26 12:00:42;;;;;;;12.07;7.30;;;;;;;;;;5082577;28;20763;-76
2024/02/26 12:03:10;;;;;;;12.18;7.95;;;;;;;;;;5076709;28;20044;-76
2024/02/26 12:05:38;;;;;;;10.95;7.47;;;;;;;;;;5079779;28;20088;-74
2024/02/26 12:08:06;;;;;;;11.75;7.57;;;;;;;;;;5095029;28;20484;-77
2024/02/26 12:10:38;;;;;;;13.30;8.13;;;;;;;;;;5077338;28;20079;-75
2024/02/26 12:13:12;;;;;;;12.05;7.38;;;;;;;;;;5074718;28;20136;-76
2024/02/26 12:15:45;;;;;;;13.38;7.65;;;;;;;;;;5083091;28;20071;-76
2024/02/26 12:18:18;;;;;;;11.75;6.80;;;;;;;;;;5087063;28;20052;-74
2024/02/26 12:20:44;;;;;;;11.60;6.93;;;;;;;;;;5073537;28;20135;-75
2024/02/26 12:23:15;;;;;;;11.88;7.10;;;;;;;;;;5073774;28;20165;-76
2024/02/26 12:25:41;;;;;;;10.57;6.53;;;;;;;;;;5088757;28;20097;-76
2024/02/26 12:28:07;;;;;;;11.43;6.97;;;;;;;;;;5090479;28;20044;-75
2024/02/26 12:30:34;;;;;;;11.30;6.57;;;;;;;;;;5076250;28;20381;-76
2024/02/26 12:33:01;;;;;;;11.57;6.40;;;;;;;;;;5070419;28;20119;-77
2024/02/26 12:35:28;;;;;;;10.35;5.50;;;;;;;;;;5097950;28;20431;-76
2024/02/26 12:37:55;;;;;;;10.27;5.82;;;;;;;;;;5074010;28;20062;-76
2024/02/26 12:40:21;;;;;;;9.98;6.15;;;;;;;;;;5086366;28;20522;-77
2024/02/26 12:42:48;;;;;;;10.68;5.93;;;;;;;;;;5077745;28;20052;-76
2024/02/26 12:45:16;;;;;;;10.65;6.63;;;;;;;;;;5061241;28;20044;-76
2024/02/26 12:47:43;;;;;;;9.98;5.90;;;;;;;;;;5059795;28;20492;-76
2024/02/26 12:50:10;;;;;;;8.43;5.45;;;;;;;;;;5059768;28;21425;-77
2024/02/26 12:52:41;;;;;;;10.57;5.57;;;;;;;;;;5074426;28;20464;-76
2024/02/26 12:55:10;;;;;;;9.07;5.70;;;;;;;;;;5086513;28;20052;-77
2024/02/26 12:57:37;;;;;;;8.65;5.10;;;;;;;;;;5074132;28;20478;-76
2024/02/26 13:00:09;;;;;;;10.70;6.15;;;;;;;;;;5083305;28;20056;-76
2024/02/26 13:02:37;;;;;;;10.63;5.68;;;;;;;;;;5078591;28;20068;-76
2024/02/26 13:05:04;;;;;;;9.80;5.23;;;;;;;;;;5075214;28;20053;-76
2024/02/26 13:07:30;;;;;;;8.65;5.28;;;;;;;;;;5077527;28;20139;-76
2024/02/26 13:09:57;;;;;;;11.93;6.20;;;;;;;;;;5068795;28;20056;-76
2024/02/26 13:12:23;;;;;;;10.90;5.63;;;;;;;;;;5073907;28;20122;-75
2024/02/26 13:15:02;;;;;;;9.25;5.97;;;;;;;;;;5059320;28;20086;-76
2024/02/26 13:17:32;;;;;;;14.52;6.63;;;;;;;;;;5082309;28;20101;-76
2024/02/26 13:19:58;;;;;;;11.18;6.25;;;;;;;;;;5078982;28;20063;-75
2024/02/26 13:22:25;;;;;;;10.00;6.32;;;;;;;;;;5076399;28;20048;-76
2024/02/26 13:24:55;;;;;;;12.68;6.80;;;;;;;;;;5070920;28;20078;-75
2024/02/26 13:27:22;;;;;;;11.80;7.05;;;;;;;;;;5068811;28;20093;-76
2024/02/26 13:29:48;;;;;;;12.00;6.57;;;;;;;;;;5085031;28;20442;-76
2024/02/26 13:32:15;;;;;;;12.13;6.68;;;;;;;;;;5068194;28;20052;-77
2024/02/26 13:34:41;;;;;;;12.18;6.68;;;;;;;;;;5087756;28;20044;-76
2024/02/26 13:37:09;;;;;;;10.52;6.60;;;;;;;;;;5081462;28;20044;-76
2024/02/26 13:39:35;;;;;;;10.57;6.50;;;;;;;;;;5083356;28;20047;-76
2024/02/26 13:42:07;;;;;;;13.48;6.97;;;;;;;;;;5075165;28;20048;-76
2024/02/26 13:44:39;;;;;;;9.98;5.68;;;;;;;;;;5063340;28;20052;-75
2024/02/26 13:47:05;;;;;;;11.10;6.97;;;;;;;;;;5074415;28;20044;-75
2024/02/26 13:49:32;;;;;;;10.55;6.68;;;;;;;;;;5061411;28;20041;-75
2024/02/26 13:51:58;;;;;;;9.85;5.72;;;;;;;;;;5063867;28;20070;-75
2024/02/26 13:54:25;;;;;;;10.95;6.55;;;;;;;;;;5066462;28;20052;-75
2024/02/26 13:56:52;;;;;;;11.43;6.22;;;;;;;;;;5071745;28;20043;-75
2024/02/26 13:59:18;;;;;;;9.45;6.22;;;;;;;;;;5086590;28;20052;-76
2024/02/26 14:01:45;;;;;;;10.60;6.43;;;;;;;;;;5063028;28;20542;-76
2024/02/26 14:04:11;;;;;;;10.57;5.82;;;;;;;;;;5081609;28;20048;-75
2024/02/26 14:06:38;;;;;;;9.25;5.88;;;;;;;;;;5080949;28;20044;-76
2024/02/26 14:09:05;;;;;;;8.27;5.82;;;;;;;;;;5079577;28;20135;-74
2024/02/26 14:11:31;;;;;;;10.32;6.40;;;;;;;;;;5070141;28;20131;-75
2024/02/26 14:13:58;;;;;;;11.55;6.45;;;;;;;;;;5046500;28;20052;-76
2024/02/26 14:16:24;;;;;;;10.77;6.70;;;;;;;;;;5078452;28;20048;-75
2024/02/26 14:18:52;;;;;;;9.60;6.17;;;;;;;;;;5072840;28;20064;-75
2024/02/26 14:21:19;;;;;;;11.13;6.75;;;;;;;;;;5059867;28;20143;-72
2024/02/26 14:23:45;;;;;;;10.20;6.07;;;;;;;;;;5082380;28;20058;-72
2024/02/26 14:26:12;;;;;;;11.65;6.43;;;;;;;;;;5059984;28;20044;-72
2024/02/26 14:28:38;;;;;;;11.18;6.53;;;;;;;;;;5079947;28;20045;-70
2024/02/26 14:31:05;;;;;;;12.13;7.22;;;;;;;;;;5075528;28;20048;-72
2024/02/26 14:33:32;;;;;;;12.05;6.57;;;;;;;;;;5067355;28;20067;-71
2024/02/26 14:35:58;;;;;;;9.45;6.00;;;;;;;;;;5083437;28;20408;-72
2024/02/26 14:38:25;;;;;;;9.88;6.20;;;;;;;;;;5069842;28;20064;-72